Flight Track Log - Related Links

Times and Time Zones

All times are in EDT time to prevent confusion due to time zone crossing. See the CCA1497 flight status page for this flight to view local times or setup timezone preferences in your user account.

Time Position Orientation Groundspeed Altitude Reporting Facility
EDT Latitude Longitude Course Direction KTS MPH feet Rate Location/Type
Tue 08:15:32 AM 39.9624 116.5217 202° Southwest  Level Estimated
Tue 08:16:32 AM 39.8857 116.4808 202° Southwest  Level Estimated
Tue 08:17:32 AM 39.8089 116.4400 202° Southwest  Level Estimated
Tue 08:18:32 AM 39.7321 116.3992 202° Southwest  Level Estimated
Tue 08:19:32 AM 39.6552 116.3586 202° Southwest  Level Estimated
Tue 08:20:32 AM 39.5784 116.3181 202° Southwest  Level Estimated
Tue 08:21:32 AM 39.5016 116.2776 202° Southwest  Level Estimated
Tue 08:22:32 AM 39.4247 116.2373 202° Southwest  Level Estimated
Tue 08:23:32 AM 39.3478 116.1970 202° Southwest  Level Estimated
Tue 08:24:32 AM 39.2710 116.1569 202° Southwest  Level Estimated
Tue 08:25:32 AM 39.1940 116.1168 202° Southwest  Level Estimated
Tue 08:26:32 AM 39.1171 116.0768 202° Southwest  Level Estimated
Tue 08:27:32 AM 39.0402 116.0368 202° Southwest  Level Estimated
Tue 08:28:32 AM 38.9633 115.9970 202° Southwest  Level Estimated
Tue 08:29:32 AM 38.8863 115.9573 202° Southwest  Level Estimated
Tue 08:30:32 AM 38.8094 115.9176 202° Southwest  Level Estimated
Tue 08:31:32 AM 38.7324 115.8781 202° Southwest  Level Estimated
Tue 08:32:32 AM 38.6554 115.8386 202° Southwest  Level Estimated
Tue 08:33:32 AM 38.5784 115.7992 202° Southwest  Level Estimated
Tue 08:34:32 AM 38.5014 115.7599 202° Southwest  Level Estimated
Tue 08:35:32 AM 38.4243 115.7207 202° Southwest  Level Estimated
Tue 08:36:32 AM 38.3473 115.6815 202° Southwest  Level Estimated
Tue 08:37:32 AM 38.2702 115.6424 202° Southwest  Level Estimated
Tue 08:38:32 AM 38.1932 115.6035 202° Southwest  Level Estimated
Tue 08:39:32 AM 38.1161 115.5646 202° Southwest  Level Estimated
Tue 08:40:32 AM 38.0390 115.5257 202° Southwest  Level Estimated
Tue 08:41:32 AM 37.9619 115.4870 202° Southwest  Level Estimated
Tue 08:42:32 AM 37.8848 115.4484 202° Southwest  Level Estimated
Tue 08:43:32 AM 37.8076 115.4098 202° Southwest  Level Estimated
Tue 08:44:32 AM 37.7305 115.3713 202° Southwest  Level Estimated
Tue 08:45:32 AM 37.6533 115.3329 201° Southwest  Level Estimated
Tue 08:46:32 AM 37.5761 115.2946 201° Southwest  Level Estimated
Tue 08:47:32 AM 37.4990 115.2563 201° Southwest  Level Estimated
Tue 08:48:32 AM 37.4218 115.2181 201° Southwest  Level Estimated
Tue 08:49:32 AM 37.3446 115.1801 201° Southwest  Level Estimated
Tue 08:50:32 AM 37.2673 115.1420 201° Southwest  Level Estimated
Tue 08:51:32 AM 37.1901 115.1041 201° Southwest  Level Estimated
Tue 08:52:32 AM 37.1129 115.0662 201° Southwest  Level Estimated
Tue 08:53:32 AM 37.0356 115.0285 201° Southwest  Level Estimated
Tue 08:54:32 AM 36.9583 114.9908 201° Southwest  Level Estimated
Tue 08:55:32 AM 36.8811 114.9531 201° Southwest  Level Estimated
Tue 08:56:32 AM 36.8038 114.9156 201° Southwest  Level Estimated
Tue 08:57:32 AM 36.7265 114.8781 201° Southwest  Level Estimated
Tue 08:58:32 AM 36.6491 114.8407 201° Southwest  Level Estimated
Tue 08:59:32 AM 36.5718 114.8034 201° Southwest  Level Estimated
Tue 09:00:32 AM 36.4945 114.7661 201° Southwest  Level Estimated
Tue 09:01:32 AM 36.4171 114.7289 201° Southwest  Level Estimated
Tue 09:02:32 AM 36.3397 114.6918 201° Southwest  Level Estimated
Tue 09:03:32 AM 36.2624 114.6548 201° Southwest  Level Estimated
Tue 09:04:32 AM 36.1850 114.6179 201° Southwest  Level Estimated
Tue 09:05:32 AM 36.1076 114.5810 201° Southwest  Level Estimated
Tue 09:06:32 AM 36.0302 114.5442 201° Southwest  Level Estimated
Tue 09:07:32 AM 35.9528 114.5074 201° Southwest  Level Estimated
Tue 09:08:32 AM 35.8753 114.4708 201° Southwest  Level Estimated
Tue 09:09:32 AM 35.7979 114.4342 201° Southwest  Level Estimated
Tue 09:10:32 AM 35.7204 114.3976 201° Southwest  Level Estimated
Tue 09:11:32 AM 35.6430 114.3612 201° Southwest  Level Estimated
Tue 09:12:32 AM 35.5655 114.3248 201° Southwest  Level Estimated
Tue 09:13:32 AM 35.4880 114.2885 201° Southwest  Level Estimated
Tue 09:14:32 AM 35.4105 114.2522 201° Southwest  Level Estimated
Tue 09:15:32 AM 35.3330 114.2160 201° Southwest  Level Estimated
Tue 09:16:32 AM 35.2555 114.1799 201° Southwest  Level Estimated
Tue 09:17:32 AM 35.1779 114.1439 201° Southwest  Level Estimated
Tue 09:18:32 AM 35.1004 114.1079 201° Southwest  Level Estimated
Tue 09:19:32 AM 35.0228 114.0721 201° Southwest  Level Estimated
Tue 09:20:32 AM 34.9453 114.0362 201° Southwest  Level Estimated
Tue 09:21:32 AM 34.8677 114.0005 201° Southwest  Level Estimated
Tue 09:22:32 AM 34.7901 113.9648 201° Southwest  Level Estimated
Tue 09:23:32 AM 34.7125 113.9291 201° Southwest  Level Estimated
Tue 09:24:32 AM 34.6349 113.8936 201° Southwest  Level Estimated

Login

Don't have an account? Register now (free) for customized features, flight alerts, and more!